createdAt,value
2022-11-21T00:03:41.962Z,38.70
2022-11-21T00:08:45.873Z,38.79
2022-11-21T00:13:49.525Z,38.59
2022-11-21T00:18:52.853Z,38.63
2022-11-21T00:23:55.959Z,39.02
2022-11-21T00:28:59.267Z,38.77
2022-11-21T00:34:07.062Z,38.77
2022-11-21T00:39:16.563Z,38.60
2022-11-21T00:44:19.814Z,38.88
2022-11-21T00:49:23.928Z,38.43
2022-11-21T00:54:27.383Z,38.95
2022-11-21T00:59:31.094Z,38.97
2022-11-21T01:04:35.933Z,38.99
2022-11-21T01:09:39.467Z,38.99
2022-11-21T01:14:42.960Z,39.05
2022-11-21T01:19:46.467Z,38.88
2022-11-21T01:24:49.967Z,38.55
2022-11-21T01:29:53.927Z,38.52
2022-11-21T01:34:57.216Z,38.55
2022-11-21T01:40:00.748Z,38.52
2022-11-21T01:45:47.199Z,38.41
2022-11-21T01:50:50.594Z,38.26
2022-11-21T01:55:54.261Z,38.37
2022-11-21T02:00:58.311Z,38.46
2022-11-21T02:06:01.764Z,38.36
2022-11-21T02:11:42.440Z,38.50
2022-11-21T02:16:46.936Z,38.62
2022-11-21T02:21:58.171Z,38.82
2022-11-21T02:27:02.439Z,38.68
2022-11-21T02:32:06.747Z,38.93
2022-11-21T02:37:10.851Z,38.96
2022-11-21T02:42:33.518Z,38.86
2022-11-21T02:47:39.580Z,39.04
2022-11-21T02:52:42.969Z,39.10
2022-11-21T02:57:45.996Z,39.40
2022-11-21T03:02:49.336Z,39.39
2022-11-21T03:07:52.642Z,39.42
2022-11-21T03:12:56.151Z,39.63
2022-11-21T03:18:00.026Z,39.55
2022-11-21T03:23:04.279Z,39.66
2022-11-21T03:28:07.773Z,39.51
2022-11-21T03:33:10.984Z,39.40
2022-11-21T03:38:13.879Z,39.46
2022-11-21T03:43:17.125Z,39.40
2022-11-21T03:48:20.533Z,39.26
2022-11-21T03:53:24.062Z,39.35
2022-11-21T03:58:28.093Z,39.09
2022-11-21T04:03:32.159Z,39.10
2022-11-21T04:08:35.877Z,38.88
2022-11-21T04:13:39.409Z,38.77
2022-11-21T04:18:42.784Z,38.80
2022-11-21T04:23:46.078Z,38.93
2022-11-21T04:28:49.586Z,38.85
2022-11-21T04:33:52.982Z,38.96
2022-11-21T04:38:56.538Z,38.76
2022-11-21T04:44:00.265Z,38.71
2022-11-21T04:49:03.955Z,38.31
2022-11-21T04:54:08.466Z,38.38
2022-11-21T04:59:11.836Z,38.34
2022-11-21T05:04:15.322Z,38.20
2022-11-21T05:09:18.707Z,38.21
2022-11-21T05:14:22.141Z,38.30
2022-11-21T05:19:25.663Z,38.41
2022-11-21T05:24:29.223Z,38.46
2022-11-21T05:29:32.498Z,38.58
2022-11-21T05:34:35.468Z,38.77
2022-11-21T05:39:38.464Z,38.89
2022-11-21T05:44:41.803Z,38.59
2022-11-21T05:49:45.044Z,38.31
2022-11-21T05:54:47.892Z,38.34
2022-11-21T05:59:50.922Z,38.33
2022-11-21T06:04:53.945Z,38.58
2022-11-21T06:09:57.166Z,38.58
2022-11-21T06:15:00.261Z,38.63
2022-11-21T06:20:03.557Z,38.62
2022-11-21T06:25:06.961Z,38.58
2022-11-21T06:30:11.278Z,38.67
2022-11-21T06:35:14.798Z,38.60
2022-11-21T06:40:18.165Z,38.54
2022-11-21T06:45:21.937Z,38.37
2022-11-21T06:50:26.202Z,38.44
2022-11-21T06:55:31.132Z,38.20
2022-11-21T07:00:35.256Z,38.37
2022-11-21T07:05:39.361Z,38.33
2022-11-21T07:11:03.447Z,38.38
2022-11-21T07:16:11.229Z,38.25
2022-11-21T07:21:14.545Z,38.53
2022-11-21T07:26:18.485Z,38.45
2022-11-21T07:31:21.772Z,38.52
2022-11-21T07:36:25.049Z,38.36
2022-11-21T07:41:28.363Z,37.99
2022-11-21T07:46:31.769Z,38.27
2022-11-21T07:51:34.855Z,38.22
2022-11-21T07:56:38.115Z,38.18
2022-11-21T08:01:45.233Z,38.07
2022-11-21T08:06:49.044Z,37.42
2022-11-21T08:11:52.680Z,37.41
2022-11-21T08:16:56.174Z,37.11
2022-11-21T08:22:00.096Z,37.27
2022-11-21T08:27:03.270Z,37.12
2022-11-21T08:32:06.648Z,37.11
2022-11-21T08:37:10.392Z,36.85
2022-11-21T08:42:14.473Z,36.91
2022-11-21T08:47:17.809Z,36.96
2022-11-21T08:52:21.230Z,36.76
2022-11-21T08:57:24.671Z,36.38
2022-11-21T09:02:27.789Z,36.26
2022-11-21T09:07:31.094Z,35.97
2022-11-21T09:12:34.673Z,35.72
2022-11-21T09:17:38.604Z,35.89
2022-11-21T09:22:44.628Z,35.77
2022-11-21T09:27:48.050Z,35.78
2022-11-21T09:32:51.335Z,35.87
2022-11-21T09:37:54.586Z,35.99
2022-11-21T09:43:06.415Z,35.92
2022-11-21T09:48:13.837Z,35.67
2022-11-21T09:53:51.383Z,35.88
2022-11-21T09:59:08.388Z,35.85
2022-11-21T10:04:11.871Z,35.89
2022-11-21T10:09:25.761Z,35.70
2022-11-21T10:15:10.742Z,35.41
2022-11-21T10:20:44.085Z,35.63
2022-11-21T10:26:03.376Z,35.47
2022-11-21T10:31:11.803Z,35.51
2022-11-21T10:36:41.026Z,35.46
2022-11-21T10:41:53.552Z,35.61
2022-11-21T10:46:57.224Z,35.58
2022-11-21T10:52:08.145Z,35.50
2022-11-21T10:57:18.838Z,35.48
2022-11-21T11:02:26.123Z,35.21
2022-11-21T11:07:29.433Z,35.03
2022-11-21T11:12:33.151Z,35.48
2022-11-21T11:17:36.474Z,35.32
2022-11-21T11:22:39.516Z,35.40
2022-11-21T11:27:43.539Z,35.59
2022-11-21T11:32:48.080Z,35.68
2022-11-21T11:38:01.523Z,35.19
2022-11-21T11:43:13.522Z,35.44
2022-11-21T11:48:18.770Z,35.34
2022-11-21T11:53:28.634Z,35.42
2022-11-21T11:58:49.567Z,35.63
2022-11-21T12:04:11.115Z,35.47
2022-11-21T12:09:23.729Z,35.35
2022-11-21T12:14:33.661Z,35.24
2022-11-21T12:19:39.620Z,35.42
2022-11-21T12:24:43.366Z,35.67
2022-11-21T12:30:09.624Z,35.71
2022-11-21T12:35:16.837Z,36.00
2022-11-21T12:40:37.955Z,36.19
2022-11-21T12:45:57.896Z,35.65
2022-11-21T12:51:37.862Z,35.66
2022-11-21T12:56:59.619Z,35.96
2022-11-21T13:02:23.213Z,35.98
2022-11-21T13:07:31.598Z,36.04
2022-11-21T13:12:52.138Z,36.00
2022-11-21T13:18:33.780Z,35.70
2022-11-21T13:23:42.508Z,36.11
2022-11-21T13:28:47.517Z,35.85
2022-11-21T13:33:51.761Z,35.82
2022-11-21T13:38:55.033Z,35.71
2022-11-21T13:44:32.793Z,36.05
2022-11-21T13:50:06.769Z,35.98
2022-11-21T13:55:49.454Z,36.03
2022-11-21T14:01:28.951Z,36.20
2022-11-21T14:06:36.758Z,36.31
2022-11-21T14:11:52.139Z,36.43
2022-11-21T14:17:40.408Z,36.34
2022-11-21T14:23:34.012Z,36.33
2022-11-21T14:28:37.882Z,36.46
2022-11-21T14:33:45.151Z,36.51
2022-11-21T14:39:07.500Z,36.44
2022-11-21T14:44:17.283Z,36.41
2022-11-21T14:49:28.090Z,36.38
2022-11-21T14:55:06.391Z,36.38
2022-11-21T15:00:36.224Z,36.37
2022-11-21T15:11:05.704Z,36.16
2022-11-21T15:16:09.591Z,35.90
2022-11-21T15:21:15.996Z,36.03
2022-11-21T15:26:32.326Z,36.04
2022-11-21T15:31:35.625Z,35.96
2022-11-21T15:36:38.952Z,36.10
2022-11-21T15:41:42.168Z,36.10
2022-11-21T15:46:45.482Z,36.16
2022-11-21T15:52:06.714Z,36.01
2022-11-21T15:57:11.215Z,36.13
2022-11-21T16:02:15.059Z,36.11
2022-11-21T16:07:18.428Z,36.05
2022-11-21T16:12:22.039Z,35.78
2022-11-21T16:17:25.601Z,36.23
2022-11-21T16:22:29.038Z,36.25
2022-11-21T16:27:32.887Z,36.31
2022-11-21T16:32:36.310Z,36.21
2022-11-21T16:37:40.115Z,36.51
2022-11-21T16:42:43.840Z,36.28
2022-11-21T16:47:48.901Z,36.39
2022-11-21T16:52:52.629Z,36.47
2022-11-21T16:57:57.155Z,36.62
2022-11-21T17:03:01.028Z,36.68
2022-11-21T17:08:04.603Z,36.67
2022-11-21T17:13:07.996Z,36.64
2022-11-21T17:18:11.531Z,36.96
2022-11-21T17:23:15.064Z,36.87
2022-11-21T17:28:18.454Z,36.96
2022-11-21T17:33:21.749Z,37.25
2022-11-21T17:38:32.435Z,37.10
2022-11-21T17:43:43.630Z,37.11
2022-11-21T17:48:54.249Z,37.27
2022-11-21T17:53:58.410Z,37.29
2022-11-21T17:59:02.519Z,37.36
2022-11-21T18:04:11.899Z,37.20
2022-11-21T18:09:28.497Z,37.45
2022-11-21T18:14:34.121Z,37.41
2022-11-21T18:19:37.330Z,37.33
2022-11-21T18:24:41.238Z,37.53
2022-11-21T18:29:45.328Z,37.43
2022-11-21T18:34:48.679Z,37.50
2022-11-21T18:39:51.968Z,37.72
2022-11-21T18:44:55.336Z,37.56
2022-11-21T18:49:59.113Z,37.77
2022-11-21T18:55:02.867Z,37.92
2022-11-21T19:00:06.928Z,37.96
2022-11-21T19:05:10.635Z,37.75
2022-11-21T19:10:41.429Z,37.91
2022-11-21T19:15:37.408Z,37.87
2022-11-21T19:20:41.991Z,37.69
2022-11-21T19:25:45.481Z,37.99
2022-11-21T19:30:48.613Z,37.73
2022-11-21T19:35:52.515Z,37.86
2022-11-21T19:41:07.544Z,37.76
2022-11-21T19:46:11.969Z,37.91
2022-11-21T19:51:15.215Z,38.10
2022-11-21T19:56:32.533Z,38.03
2022-11-21T20:01:35.971Z,38.05
2022-11-21T20:06:41.997Z,38.15
2022-11-21T20:11:48.883Z,38.23
2022-11-21T20:16:55.184Z,38.51
2022-11-21T20:21:58.441Z,38.41
2022-11-21T20:27:04.524Z,38.33
2022-11-21T20:32:10.906Z,38.10
2022-11-21T20:37:18.872Z,38.35
2022-11-21T20:42:22.334Z,38.30
2022-11-21T20:47:25.724Z,38.31
2022-11-21T20:53:49.817Z,38.49
2022-11-21T20:57:57.321Z,38.33
2022-11-21T21:03:00.617Z,38.45
2022-11-21T21:08:05.503Z,38.35
2022-11-21T21:13:11.897Z,38.51
2022-11-21T21:18:15.906Z,38.45
2022-11-21T21:23:19.578Z,38.64
2022-11-21T21:28:22.879Z,38.71
2022-11-21T21:33:28.534Z,38.43
2022-11-21T21:38:31.776Z,38.61
2022-11-21T21:43:36.581Z,38.64
2022-11-21T21:48:41.086Z,38.90
2022-11-21T21:53:46.248Z,38.98
2022-11-21T21:58:52.915Z,39.03
2022-11-21T22:04:01.491Z,39.19
2022-11-21T22:09:05.833Z,39.13
2022-11-21T22:14:15.369Z,39.12
2022-11-21T22:19:18.932Z,39.10
2022-11-21T22:24:26.940Z,39.33
2022-11-21T22:29:30.421Z,38.91
2022-11-21T22:34:33.712Z,39.02
2022-11-21T22:39:36.923Z,38.90
2022-11-21T22:44:40.622Z,38.94
2022-11-21T22:49:44.902Z,38.80
2022-11-21T22:54:59.139Z,38.91
2022-11-21T23:00:02.466Z,38.74
2022-11-21T23:05:07.461Z,38.86
2022-11-21T23:10:13.184Z,38.86
2022-11-21T23:15:16.533Z,39.20
2022-11-21T23:20:20.170Z,39.24
2022-11-21T23:25:23.518Z,39.43
2022-11-21T23:30:29.332Z,39.35
2022-11-21T23:35:33.518Z,39.28
2022-11-21T23:40:40.686Z,39.55
2022-11-21T23:45:44.273Z,39.43
2022-11-21T23:50:48.642Z,39.48
2022-11-21T23:55:54.649Z,39.60
